Time;durP1;ratioP1;P1;durP2;ratioP2;P2;SDS_P1;SDS_P2;PMS_P1;PMS_P2;Temp;Humidity;BMP_temperature;BMP_pressure;BME280_temperature;BME280_humidity;BME280_pressure;Samples;Min_cycle;Max_cycle;Signal;HPM_P1;HPM_P2
2023/02/05 00:00:47;;;;;;;1.53;1.07;;;8.40;99.90;;;;;;4982031;28;20193;-70
2023/02/05 00:03:14;;;;;;;2.07;0.70;;;8.30;99.90;;;;;;4984239;28;20235;-70
2023/02/05 00:05:44;;;;;;;4.87;1.10;;;8.30;99.90;;;;;;4979998;28;20555;-71
2023/02/05 00:08:15;;;;;;;2.70;0.67;;;8.30;99.90;;;;;;4984556;28;20263;-70
2023/02/05 00:10:54;;;;;;;4.23;0.87;;;8.30;99.90;;;;;;4979348;28;20256;-71
2023/02/05 00:13:31;;;;;;;3.67;1.00;;;8.20;99.90;;;;;;4981656;28;20216;-70
2023/02/05 00:15:58;;;;;;;2.77;0.73;;;8.20;99.90;;;;;;4982264;28;20213;-71
2023/02/05 00:18:31;;;;;;;2.33;1.00;;;8.20;99.90;;;;;;4984581;28;20192;-71
2023/02/05 00:20:59;;;;;;;1.20;0.70;;;8.20;99.90;;;;;;4981711;28;20881;-71
2023/02/05 00:23:30;;;;;;;2.00;0.77;;;8.10;99.90;;;;;;4983148;28;20240;-71
2023/02/05 00:26:04;;;;;;;5.63;1.20;;;8.10;99.90;;;;;;4980146;28;20299;-71
2023/02/05 00:28:36;;;;;;;2.00;1.03;;;8.10;99.90;;;;;;4978440;28;20277;-71
2023/02/05 00:31:20;;;;;;;4.00;0.80;;;8.10;99.90;;;;;;4974894;28;20198;-71
2023/02/05 00:33:49;;;;;;;1.30;0.60;;;8.10;99.90;;;;;;4972232;28;20212;-71
2023/02/05 00:36:28;;;;;;;6.60;1.07;;;8.10;99.90;;;;;;4980904;28;20599;-71
2023/02/05 00:38:54;;;;;;;6.03;1.00;;;8.10;99.90;;;;;;4979920;28;20189;-70
2023/02/05 00:41:26;;;;;;;1.27;0.73;;;8.10;99.90;;;;;;4964285;28;20213;-70
2023/02/05 00:43:54;;;;;;;4.73;1.03;;;8.10;99.90;;;;;;4983235;28;20193;-71
2023/02/05 00:46:23;;;;;;;2.77;0.73;;;8.10;99.90;;;;;;4978998;28;20735;-71
2023/02/05 00:48:49;;;;;;;4.43;0.90;;;8.10;99.90;;;;;;4984070;28;20667;-71
2023/02/05 00:51:15;;;;;;;2.97;1.07;;;8.10;99.90;;;;;;4983326;28;20519;-71
2023/02/05 00:53:48;;;;;;;1.73;0.80;;;8.10;99.90;;;;;;4978343;28;20200;-70
2023/02/05 00:56:22;;;;;;;1.10;0.80;;;8.10;99.90;;;;;;4980956;28;20198;-70
2023/02/05 00:58:51;;;;;;;1.20;0.80;;;8.10;99.90;;;;;;4980566;28;20204;-71
2023/02/05 01:01:17;;;;;;;2.60;1.03;;;8.10;99.90;;;;;;4981345;28;20185;-74
2023/02/05 01:03:47;;;;;;;3.33;0.80;;;8.10;99.90;;;;;;4983028;28;20185;-74
2023/02/05 01:06:19;;;;;;;3.90;1.00;;;8.10;99.90;;;;;;4981017;28;20221;-74
2023/02/05 01:08:52;;;;;;;1.33;0.70;;;8.10;99.90;;;;;;4980926;28;20189;-74
2023/02/05 01:11:20;;;;;;;3.23;0.80;;;8.10;99.90;;;;;;4981313;28;20190;-73
2023/02/05 01:13:49;;;;;;;4.63;0.80;;;8.10;99.90;;;;;;4963585;28;20260;-74
2023/02/05 01:16:22;;;;;;;6.33;0.73;;;8.10;99.90;;;;;;4983747;28;22060;-74
2023/02/05 01:18:49;;;;;;;3.43;0.97;;;8.10;99.90;;;;;;4986073;28;20280;-73
2023/02/05 01:21:23;;;;;;;0.73;0.70;;;8.10;99.90;;;;;;5000220;28;20186;-74
2023/02/05 01:24:01;;;;;;;1.27;0.50;;;8.10;99.90;;;;;;4983260;28;20280;-74
2023/02/05 01:26:27;;;;;;;3.30;0.83;;;8.10;99.90;;;;;;4999702;28;20707;-74
2023/02/05 01:28:58;;;;;;;2.03;0.80;;;8.10;99.90;;;;;;4983424;28;20409;-73
2023/02/05 01:31:34;;;;;;;2.37;0.70;;;8.10;99.90;;;;;;4987060;28;20194;-74
2023/02/05 01:34:04;;;;;;;2.33;0.50;;;8.10;99.90;;;;;;4987609;28;20193;-74
2023/02/05 01:36:39;;;;;;;1.77;0.60;;;8.10;99.90;;;;;;4985343;28;20208;-73
2023/02/05 01:39:14;;;;;;;2.03;0.70;;;8.10;99.90;;;;;;4984524;28;20617;-74
2023/02/05 01:41:45;;;;;;;4.00;0.90;;;8.10;99.90;;;;;;4986711;28;20204;-73
2023/02/05 01:44:21;;;;;;;2.27;0.50;;;8.10;99.90;;;;;;4973817;28;20197;-73
2023/02/05 01:46:54;;;;;;;0.77;0.50;;;8.10;99.90;;;;;;4984255;28;20267;-74
2023/02/05 01:49:43;;;;;;;2.13;0.57;;;8.10;99.90;;;;;;4985285;28;20195;-74
2023/02/05 01:52:15;;;;;;;2.37;0.67;;;8.10;99.90;;;;;;4981855;28;20209;-74
2023/02/05 01:54:51;;;;;;;4.77;0.70;;;8.10;99.90;;;;;;4985463;28;20236;-74
2023/02/05 01:57:22;;;;;;;2.47;0.87;;;8.10;99.90;;;;;;4986168;28;20228;-73
2023/02/05 01:59:50;;;;;;;3.77;0.87;;;8.10;99.90;;;;;;4983689;28;20190;-73
2023/02/05 02:02:19;;;;;;;0.90;0.50;;;8.10;99.90;;;;;;4984472;28;20864;-74
2023/02/05 02:04:57;;;;;;;2.77;0.77;;;8.00;99.90;;;;;;4982694;28;20189;-74
2023/02/05 02:07:24;;;;;;;2.07;0.77;;;8.00;99.90;;;;;;4985245;28;20247;-74
2023/02/05 02:09:54;;;;;;;3.50;0.90;;;8.00;99.90;;;;;;4985522;28;20194;-74
2023/02/05 02:12:30;;;;;;;4.43;0.93;;;8.00;99.90;;;;;;4981831;28;20194;-74
2023/02/05 02:15:08;;;;;;;1.10;0.50;;;8.00;99.90;;;;;;4983230;28;20189;-74
2023/02/05 02:17:44;;;;;;;2.67;0.70;;;8.00;99.90;;;;;;4979698;28;20190;-73
2023/02/05 02:20:22;;;;;;;2.67;0.70;;;8.00;99.90;;;;;;4985994;28;20900;-74
2023/02/05 02:23:02;;;;;;;5.30;1.00;;;8.00;99.90;;;;;;4981740;28;20255;-73
2023/02/05 02:26:12;;;;;;;3.53;0.73;;;8.00;99.90;;;;;;4981784;28;20197;-74
2023/02/05 02:29:03;;;;;;;4.33;0.97;;;8.00;99.90;;;;;;4984539;28;20194;-73
2023/02/05 02:32:17;;;;;;;2.80;0.90;;;8.10;99.90;;;;;;4984595;28;20193;-73
2023/02/05 02:35:31;;;;;;;4.13;0.83;;;8.10;99.90;;;;;;4981476;28;20182;-73
2023/02/05 02:38:48;;;;;;;3.67;0.60;;;8.10;99.90;;;;;;4979835;28;20206;-74
2023/02/05 02:41:48;;;;;;;2.63;0.83;;;8.10;99.90;;;;;;4982071;28;20240;-73
2023/02/05 02:44:54;;;;;;;3.47;0.90;;;8.10;99.90;;;;;;4964399;28;20206;-73
2023/02/05 02:47:28;;;;;;;3.80;1.43;;;8.10;99.90;;;;;;4976397;28;20594;-74
2023/02/05 02:50:22;;;;;;;2.57;0.73;;;8.10;99.90;;;;;;4984218;28;20193;-74
2023/02/05 02:52:54;;;;;;;4.37;0.90;;;8.10;99.90;;;;;;4997619;28;20193;-73
2023/02/05 02:55:24;;;;;;;2.83;1.00;;;8.10;99.90;;;;;;4985888;28;20196;-73
2023/02/05 02:58:01;;;;;;;4.63;0.60;;;8.10;99.90;;;;;;4982920;28;20284;-74
2023/02/05 03:00:33;;;;;;;6.10;0.87;;;8.10;99.90;;;;;;4985657;28;20193;-74
2023/02/05 03:03:10;;;;;;;2.23;0.57;;;8.20;99.90;;;;;;4984957;28;20559;-74
2023/02/05 03:05:48;;;;;;;0.90;0.50;;;8.20;99.90;;;;;;4982914;28;20228;-74
2023/02/05 03:08:59;;;;;;;1.57;0.60;;;8.30;99.90;;;;;;4987087;28;20536;-74
2023/02/05 03:11:34;;;;;;;1.37;0.40;;;8.30;99.90;;;;;;4985094;28;20228;-74
2023/02/05 03:14:03;;;;;;;2.47;0.70;;;8.30;99.90;;;;;;4980869;28;20192;-74
2023/02/05 03:16:43;;;;;;;1.67;0.70;;;8.30;99.90;;;;;;4982442;28;20229;-74
2023/02/05 03:19:17;;;;;;;3.07;0.80;;;8.30;99.90;;;;;;4982800;28;20913;-74
2023/02/05 03:22:01;;;;;;;2.00;1.00;;;8.30;99.90;;;;;;4982001;28;20256;-74
2023/02/05 03:24:31;;;;;;;2.90;0.80;;;8.40;99.90;;;;;;4985275;28;20212;-74
2023/02/05 03:27:09;;;;;;;2.97;0.90;;;8.40;99.90;;;;;;4982945;28;20205;-74
2023/02/05 03:29:43;;;;;;;3.43;1.03;;;8.40;99.90;;;;;;4973818;28;20225;-74
2023/02/05 03:32:35;;;;;;;1.60;0.63;;;8.50;99.90;;;;;;4998979;28;20194;-74
2023/02/05 03:35:51;;;;;;;2.97;0.80;;;8.50;99.90;;;;;;4983675;28;20200;-74
2023/02/05 03:38:48;;;;;;;3.33;0.90;;;8.50;99.90;;;;;;4928913;28;20219;-74
2023/02/05 03:41:54;;;;;;;4.90;1.00;;;8.50;99.90;;;;;;4998214;28;20204;-74
2023/02/05 03:44:44;;;;;;;6.63;1.10;;;8.50;99.90;;;;;;4982691;28;20186;-74
2023/02/05 03:48:15;;;;;;;3.90;1.13;;;8.50;99.90;;;;;;4997459;28;20181;-74
2023/02/05 03:51:25;;;;;;;4.03;0.80;;;8.60;99.90;;;;;;4979654;28;20691;-74
2023/02/05 03:54:20;;;;;;;2.33;1.00;;;8.60;99.90;;;;;;4980785;28;20663;-74
2023/02/05 03:57:52;;;;;;;3.93;0.83;;;8.60;99.90;;;;;;4994473;28;20214;-74
2023/02/05 04:00:25;;;;;;;2.67;1.33;;;8.60;99.90;;;;;;4974451;28;20194;-74
2023/02/05 04:02:54;;;;;;;3.13;0.90;;;8.60;99.90;;;;;;4985062;28;20386;-74
2023/02/05 04:05:24;;;;;;;4.13;1.00;;;8.60;99.90;;;;;;4980260;28;20187;-74
2023/02/05 04:07:56;;;;;;;3.87;0.90;;;8.60;99.90;;;;;;4989329;28;20193;-74
2023/02/05 04:10:30;;;;;;;3.30;1.03;;;8.50;99.90;;;;;;4984155;28;20520;-74
2023/02/05 04:13:01;;;;;;;6.57;1.00;;;8.60;99.90;;;;;;4984832;28;20221;-74
2023/02/05 04:15:33;;;;;;;7.30;1.07;;;8.60;99.90;;;;;;4968159;28;20863;-74
2023/02/05 04:18:05;;;;;;;1.37;0.70;;;8.60;99.90;;;;;;4985403;28;20296;-74
2023/02/05 04:20:39;;;;;;;3.23;0.90;;;8.60;99.90;;;;;;4985152;28;20283;-74
2023/02/05 04:23:13;;;;;;;10.60;1.30;;;8.60;99.90;;;;;;4983472;28;20193;-74
2023/02/05 04:25:43;;;;;;;7.27;1.40;;;8.60;99.90;;;;;;4980529;28;20181;-74
2023/02/05 04:28:23;;;;;;;4.87;1.53;;;8.70;99.90;;;;;;4982871;28;20276;-74
2023/02/05 04:30:55;;;;;;;7.00;1.13;;;8.60;99.90;;;;;;4979519;28;20623;-74
2023/02/05 04:33:24;;;;;;;3.93;1.13;;;8.70;99.90;;;;;;4981995;28;20280;-74
2023/02/05 04:36:02;;;;;;;7.87;1.63;;;8.70;99.90;;;;;;4981942;28;20304;-74
2023/02/05 04:38:36;;;;;;;3.47;1.40;;;8.70;99.90;;;;;;4978134;28;20203;-74
2023/02/05 04:41:22;;;;;;;;;;;;;;;;;;;;;
2023/02/05 04:43:52;;;;;;;7.00;1.57;;;8.60;99.90;;;;;;4977031;28;20190;-74
2023/02/05 04:46:30;;;;;;;;;;;;;;;;;;;;;
2023/02/05 04:49:19;;;;;;;4.60;1.30;;;8.60;99.90;;;;;;4977184;28;20245;-74
2023/02/05 04:51:51;;;;;;;3.20;0.90;;;8.70;99.90;;;;;;4983906;28;20202;-74
2023/02/05 04:54:19;;;;;;;6.60;1.40;;;8.70;99.90;;;;;;4994095;28;20194;-74
2023/02/05 04:56:51;;;;;;;3.93;1.00;;;8.70;99.90;;;;;;4977469;28;20217;-74
2023/02/05 04:59:23;;;;;;;6.83;1.57;;;8.70;99.90;;;;;;4990881;28;20194;-74
2023/02/05 05:01:50;;;;;;;6.07;1.17;;;8.80;99.90;;;;;;4978471;28;20663;-74
2023/02/05 05:04:17;;;;;;;4.77;1.03;;;8.80;99.90;;;;;;4984629;28;20205;-74
2023/02/05 05:06:46;;;;;;;7.87;1.00;;;8.80;99.90;;;;;;4983543;28;20185;-74
2023/02/05 05:09:15;;;;;;;4.23;1.10;;;8.80;99.90;;;;;;4997070;28;20192;-74
2023/02/05 05:11:44;;;;;;;3.17;1.20;;;8.90;99.90;;;;;;4982294;28;20193;-74
2023/02/05 05:14:12;;;;;;;10.37;1.03;;;8.90;99.90;;;;;;4982448;28;20200;-74
2023/02/05 05:16:44;;;;;;;2.60;0.70;;;8.90;99.90;;;;;;4982031;28;20304;-72
2023/02/05 05:19:11;;;;;;;4.43;0.80;;;8.90;99.90;;;;;;4984861;28;20177;-74
2023/02/05 05:21:40;;;;;;;5.80;1.20;;;8.90;99.90;;;;;;4997873;28;20206;-74
2023/02/05 05:24:09;;;;;;;5.67;0.87;;;8.90;99.90;;;;;;4982416;28;20269;-74
2023/02/05 05:26:45;;;;;;;4.53;0.93;;;8.90;99.90;;;;;;4979261;28;20189;-74
2023/02/05 05:29:15;;;;;;;4.23;1.00;;;9.00;99.90;;;;;;4982564;28;20193;-74
2023/02/05 05:31:43;;;;;;;8.77;1.27;;;9.00;99.90;;;;;;4982074;28;20182;-74
2023/02/05 05:34:09;;;;;;;3.80;1.00;;;9.00;99.90;;;;;;4981898;28;20196;-74
2023/02/05 05:36:42;;;;;;;5.87;1.17;;;9.00;99.90;;;;;;4982601;28;20614;-74
2023/02/05 05:44:55;;;;;;;1.80;0.57;;;9.10;99.90;;;;;;4979342;28;20185;-74
2023/02/05 05:47:34;;;;;;;;;;;;;;;;;;;;;
2023/02/05 05:50:03;;;;;;;5.77;0.83;;;9.10;99.90;;;;;;4981597;28;20200;-74
2023/02/05 05:52:29;;;;;;;3.47;1.00;;;9.10;99.90;;;;;;4983695;28;20187;-74
2023/02/05 05:54:56;;;;;;;5.63;1.00;;;9.10;99.90;;;;;;4981424;28;20666;-74
2023/02/05 05:57:27;;;;;;;4.07;1.23;;;9.20;99.90;;;;;;4982079;28;20228;-74
2023/02/05 05:59:58;;;;;;;3.43;1.13;;;9.20;99.90;;;;;;4978522;28;20190;-74
2023/02/05 06:02:24;;;;;;;2.13;0.90;;;9.20;99.90;;;;;;4983988;28;20189;-74
2023/02/05 06:05:01;;;;;;;3.43;1.00;;;9.30;99.90;;;;;;4986196;28;20774;-74
2023/02/05 06:07:28;;;;;;;2.70;1.07;;;9.30;99.90;;;;;;4985314;28;20587;-74
2023/02/05 06:09:56;;;;;;;4.13;1.00;;;9.30;99.90;;;;;;4983484;28;20288;-74
2023/02/05 06:12:31;;;;;;;8.80;1.03;;;9.40;99.90;;;;;;4984826;28;20540;-74
2023/02/05 06:14:59;;;;;;;5.10;1.00;;;9.40;99.90;;;;;;4976810;28;20667;-74
2023/02/05 06:17:26;;;;;;;1.97;0.80;;;9.30;99.90;;;;;;4982654;28;20734;-74
2023/02/05 06:19:53;;;;;;;2.00;0.80;;;9.30;99.90;;;;;;4983776;28;20296;-73
2023/02/05 06:22:27;;;;;;;2.47;0.67;;;9.40;99.90;;;;;;4986435;28;20188;-74
2023/02/05 06:24:57;;;;;;;4.73;0.93;;;9.40;99.90;;;;;;4984380;28;20201;-74
2023/02/05 06:27:31;;;;;;;3.23;1.07;;;9.40;99.90;;;;;;4983240;28;20216;-74
2023/02/05 06:30:04;;;;;;;12.17;1.00;;;9.40;99.90;;;;;;4979334;28;20204;-74
2023/02/05 06:32:33;;;;;;;2.23;0.80;;;9.40;99.90;;;;;;4975152;28;20643;-74
2023/02/05 06:35:03;;;;;;;2.57;0.80;;;9.40;99.90;;;;;;4980927;28;20197;-74
2023/02/05 06:37:41;;;;;;;5.60;0.60;;;9.40;99.90;;;;;;4983574;28;20238;-74
2023/02/05 06:40:19;;;;;;;3.77;1.37;;;9.40;99.90;;;;;;4982356;28;20189;-74
2023/02/05 06:42:46;;;;;;;2.43;0.93;;;9.40;99.90;;;;;;4985739;28;20559;-74
2023/02/05 06:45:22;;;;;;;4.43;0.90;;;9.40;99.90;;;;;;4985151;28;20205;-72
2023/02/05 06:47:52;;;;;;;5.03;1.17;;;9.50;99.90;;;;;;4983541;28;20205;-74
2023/02/05 06:50:24;;;;;;;3.93;1.00;;;9.50;99.90;;;;;;4983725;28;20194;-74
2023/02/05 06:52:53;;;;;;;3.17;0.70;;;9.50;99.90;;;;;;4979103;28;20201;-74
2023/02/05 06:55:30;;;;;;;7.87;0.80;;;9.50;99.90;;;;;;4980715;28;20186;-74
2023/02/05 06:58:00;;;;;;;2.67;0.90;;;9.60;99.90;;;;;;4982038;28;20201;-74
2023/02/05 07:00:27;;;;;;;9.37;0.87;;;9.60;99.90;;;;;;4985060;28;20214;-74
2023/02/05 07:02:55;;;;;;;1.87;0.53;;;9.60;99.90;;;;;;4979692;28;20197;-74
2023/02/05 07:05:25;;;;;;;2.10;0.70;;;9.60;99.90;;;;;;4984171;28;20276;-74
2023/02/05 07:08:05;;;;;;;2.97;0.87;;;9.70;99.90;;;;;;4985729;28;20205;-74
2023/02/05 07:10:35;;;;;;;2.67;1.00;;;9.70;99.90;;;;;;4983120;28;20193;-74
2023/02/05 07:13:14;;;;;;;5.27;0.97;;;9.70;99.90;;;;;;4977348;28;20189;-74
2023/02/05 07:15:43;;;;;;;7.70;1.40;;;9.60;99.90;;;;;;4994646;28;20309;-74
2023/02/05 07:18:10;;;;;;;3.60;1.07;;;9.70;99.90;;;;;;4980380;28;20198;-74
2023/02/05 07:20:37;;;;;;;5.30;1.30;;;9.70;99.90;;;;;;4983213;28;20671;-74
2023/02/05 07:23:06;;;;;;;5.33;1.10;;;9.70;99.90;;;;;;4962794;28;20273;-74
2023/02/05 07:25:38;;;;;;;5.03;0.83;;;9.80;99.90;;;;;;4984508;28;20660;-74
2023/02/05 07:28:07;;;;;;;3.40;1.10;;;9.80;99.90;;;;;;4984625;28;20492;-74
2023/02/05 07:30:35;;;;;;;2.23;0.80;;;9.80;99.90;;;;;;4981757;28;20216;-74
2023/02/05 07:33:02;;;;;;;6.57;1.03;;;9.80;99.90;;;;;;4982704;28;20185;-74
2023/02/05 07:35:43;;;;;;;2.10;0.70;;;9.70;99.90;;;;;;4983039;28;20198;-74
2023/02/05 07:38:25;;;;;;;3.00;0.70;;;9.80;99.90;;;;;;4983886;28;20189;-74
2023/02/05 07:40:55;;;;;;;1.87;0.73;;;9.80;99.90;;;;;;4977258;28;20190;-74
2023/02/05 07:43:24;;;;;;;3.17;0.60;;;9.80;99.90;;;;;;4976757;28;20193;-74
2023/02/05 07:46:07;;;;;;;3.10;0.60;;;9.90;99.90;;;;;;4973224;28;20302;-74
2023/02/05 07:48:44;;;;;;;1.17;0.50;;;10.00;99.90;;;;;;4980680;28;20189;-74
2023/02/05 07:51:35;;;;;;;2.90;0.90;;;10.00;99.90;;;;;;4979432;28;20315;-74
2023/02/05 07:54:20;;;;;;;;;;;;;;;;;;;;;
2023/02/05 07:56:48;;;;;;;4.07;0.90;;;10.10;99.90;;;;;;4979032;28;20236;-74
2023/02/05 07:59:23;;;;;;;4.00;1.00;;;10.10;99.90;;;;;;4971788;28;20992;-74
2023/02/05 08:01:50;;;;;;;3.30;1.00;;;10.00;99.90;;;;;;4979224;28;20193;-74
2023/02/05 08:04:17;;;;;;;1.90;0.90;;;10.10;99.90;;;;;;4977788;28;20190;-74
2023/02/05 08:06:43;;;;;;;1.50;0.77;;;10.20;99.90;;;;;;4986126;28;20198;-74
2023/02/05 08:09:16;;;;;;;3.50;0.80;;;10.20;99.90;;;;;;4979524;28;20216;-74
2023/02/05 08:11:43;;;;;;;2.67;0.90;;;10.30;99.90;;;;;;4978540;28;20205;-74
2023/02/05 08:14:11;;;;;;;3.00;1.00;;;10.30;99.90;;;;;;4973632;28;20209;-74
2023/02/05 08:16:40;;;;;;;3.50;1.00;;;10.30;99.90;;;;;;4977761;28;20275;-74
2023/02/05 08:19:14;;;;;;;2.83;1.27;;;10.30;99.90;;;;;;4982299;28;20201;-74
2023/02/05 08:21:52;;;;;;;3.23;0.93;;;10.30;99.90;;;;;;4992209;28;20311;-74
2023/02/05 08:24:18;;;;;;;2.50;0.83;;;10.30;99.90;;;;;;4979758;28;20198;-74
2023/02/05 08:26:47;;;;;;;2.90;0.70;;;10.40;99.90;;;;;;4981149;28;20221;-74
2023/02/05 08:29:19;;;;;;;1.43;0.70;;;10.30;99.90;;;;;;4980789;28;20816;-74
2023/02/05 08:31:50;;;;;;;4.47;0.77;;;10.30;99.90;;;;;;4980084;28;20293;-74
2023/02/05 08:34:19;;;;;;;3.50;0.70;;;10.40;99.90;;;;;;4977126;28;20193;-74
2023/02/05 08:36:46;;;;;;;2.20;0.87;;;10.40;99.90;;;;;;4976043;28;20208;-74
2023/02/05 08:39:14;;;;;;;3.77;0.70;;;10.40;99.90;;;;;;4982214;28;20763;-74
2023/02/05 08:41:42;;;;;;;2.57;0.63;;;10.50;99.90;;;;;;4992432;28;20204;-74
2023/02/05 08:44:16;;;;;;;6.77;0.83;;;10.40;99.90;;;;;;4980926;28;20205;-74
2023/02/05 08:46:44;;;;;;;3.77;0.90;;;10.40;99.90;;;;;;4980221;28;20209;-74
2023/02/05 08:49:12;;;;;;;2.77;0.70;;;10.40;99.90;;;;;;4975764;28;20856;-74
2023/02/05 08:51:39;;;;;;;1.20;0.50;;;10.40;99.90;;;;;;4996498;28;20197;-74
2023/02/05 08:54:11;;;;;;;1.67;0.60;;;10.40;99.90;;;;;;4981687;28;20193;-74
2023/02/05 08:56:40;;;;;;;1.70;0.73;;;10.40;99.90;;;;;;4989906;28;20442;-74
2023/02/05 08:59:09;;;;;;;4.20;1.00;;;10.50;99.90;;;;;;4991352;28;20242;-74
2023/02/05 09:01:41;;;;;;;2.47;0.73;;;10.40;99.90;;;;;;4978793;28;20192;-74
2023/02/05 09:04:25;;;;;;;1.70;0.60;;;10.50;99.90;;;;;;4985591;28;20558;-74
2023/02/05 09:07:01;;;;;;;2.57;0.80;;;10.40;99.90;;;;;;4980627;28;20193;-74
2023/02/05 09:09:34;;;;;;;1.43;0.60;;;10.40;99.90;;;;;;4982156;28;20300;-74
2023/02/05 09:12:10;;;;;;;2.30;0.60;;;10.40;99.90;;;;;;4975884;28;20190;-74
2023/02/05 09:14:53;;;;;;;3.27;0.90;;;10.40;99.90;;;;;;4983145;28;20713;-74
2023/02/05 09:17:20;;;;;;;0.87;0.50;;;10.50;99.90;;;;;;4986749;28;20208;-74
2023/02/05 09:19:49;;;;;;;3.37;0.80;;;10.50;99.90;;;;;;5000672;28;20570;-74
2023/02/05 09:22:17;;;;;;;1.00;0.50;;;10.50;99.90;;;;;;4989606;28;20201;-74
2023/02/05 09:24:48;;;;;;;3.10;0.70;;;10.50;99.90;;;;;;4984969;28;20182;-74
2023/02/05 09:27:18;;;;;;;3.50;0.60;;;10.60;99.90;;;;;;4982889;28;20556;-74
2023/02/05 09:29:48;;;;;;;1.43;0.80;;;10.60;99.90;;;;;;4981932;28;20193;-74
2023/02/05 09:32:18;;;;;;;2.57;0.70;;;10.60;99.90;;;;;;4982507;28;20190;-74
2023/02/05 09:34:49;;;;;;;2.40;0.70;;;10.90;99.90;;;;;;4981060;28;20858;-74
2023/02/05 09:37:16;;;;;;;1.07;0.60;;;10.90;99.90;;;;;;4983512;28;20220;-74
2023/02/05 09:39:43;;;;;;;1.67;0.50;;;10.90;99.90;;;;;;4983386;28;20193;-74
2023/02/05 09:42:49;;;;;;;1.27;0.70;;;11.00;99.90;;;;;;4995852;28;20282;-72
2023/02/05 09:46:10;;;;;;;1.47;0.70;;;11.00;99.90;;;;;;4950473;28;20193;-74
2023/02/05 09:49:08;;;;;;;3.53;0.70;;;11.10;99.90;;;;;;4976740;28;20193;-74
2023/02/05 09:51:48;;;;;;;1.63;0.90;;;11.20;99.90;;;;;;4980040;28;20201;-74
2023/02/05 09:54:30;;;;;;;3.20;0.63;;;11.20;99.90;;;;;;4981679;28;20276;-74
2023/02/05 09:57:15;;;;;;;2.03;0.63;;;11.20;99.90;;;;;;4979494;28;20847;-74
2023/02/05 09:59:46;;;;;;;1.43;0.83;;;11.20;99.90;;;;;;4980200;28;20195;-74
2023/02/05 10:03:06;;;;;;;2.20;0.90;;;11.20;99.90;;;;;;4982393;28;20248;-74
2023/02/05 10:06:20;;;;;;;2.23;0.83;;;11.10;99.90;;;;;;4989978;28;20698;-74
2023/02/05 10:08:53;;;;;;;3.83;0.73;;;11.10;99.90;;;;;;4978146;28;20559;-74
2023/02/05 10:11:37;;;;;;;3.60;0.90;;;11.10;99.90;;;;;;4976055;28;20201;-74
2023/02/05 10:14:43;;;;;;;2.47;1.00;;;11.10;99.90;;;;;;4980332;28;20186;-74
2023/02/05 10:17:34;;;;;;;2.70;0.77;;;11.00;99.90;;;;;;4979381;28;20213;-74
2023/02/05 10:20:50;;;;;;;2.10;0.77;;;11.00;99.90;;;;;;4963960;28;20209;-74
2023/02/05 10:23:48;;;;;;;2.50;0.93;;;11.00;99.90;;;;;;4983824;28;20186;-74
2023/02/05 10:26:22;;;;;;;3.47;0.90;;;11.10;99.90;;;;;;4983007;28;20563;-74
2023/02/05 10:29:08;;;;;;;3.33;0.87;;;11.10;99.90;;;;;;4983246;28;20185;-74
2023/02/05 10:31:56;;;;;;;2.93;0.77;;;11.20;99.90;;;;;;4983323;28;20185;-74
2023/02/05 10:34:41;;;;;;;4.43;0.87;;;11.30;99.90;;;;;;4982825;28;20189;-74
2023/02/05 10:37:20;;;;;;;3.00;0.83;;;11.30;99.90;;;;;;4987484;28;20228;-74
2023/02/05 10:39:48;;;;;;;4.47;0.80;;;11.40;99.90;;;;;;5003378;28;20185;-74
2023/02/05 10:42:27;;;;;;;2.50;0.90;;;11.50;99.90;;;;;;4992757;28;20706;-72
2023/02/05 10:45:16;;;;;;;2.37;0.70;;;11.50;99.90;;;;;;4982393;28;20220;-74
2023/02/05 10:48:23;;;;;;;3.23;1.00;;;11.50;99.90;;;;;;4981327;28;20209;-74
2023/02/05 10:51:12;;;;;;;3.60;1.00;;;11.50;99.90;;;;;;4978132;28;20197;-74
2023/02/05 10:53:41;;;;;;;2.60;0.80;;;11.50;99.90;;;;;;4983109;28;20189;-74
2023/02/05 10:56:20;;;;;;;1.80;0.57;;;11.40;99.90;;;;;;4983429;28;20216;-74
2023/02/05 10:58:55;;;;;;;4.83;1.27;;;11.40;99.90;;;;;;4964758;28;20193;-74
2023/02/05 11:01:34;;;;;;;5.37;0.97;;;11.40;99.90;;;;;;4985996;28;20212;-74
2023/02/05 11:04:14;;;;;;;2.70;1.00;;;11.40;99.90;;;;;;4981588;28;20189;-74
2023/02/05 11:06:52;;;;;;;3.73;0.90;;;11.40;99.90;;;;;;4984743;28;20258;-74
2023/02/05 11:09:30;;;;;;;2.70;0.80;;;11.30;99.90;;;;;;4991792;28;20185;-74
2023/02/05 11:12:16;;;;;;;4.17;1.03;;;11.40;99.90;;;;;;4999642;28;20198;-74
2023/02/05 11:15:07;;;;;;;1.70;0.80;;;11.50;99.90;;;;;;4981424;28;20188;-74
2023/02/05 11:17:39;;;;;;;2.67;0.80;;;11.70;99.90;;;;;;4961713;28;20766;-74
2023/02/05 11:20:38;;;;;;;3.10;1.00;;;11.90;99.90;;;;;;4981747;28;20349;-74
2023/02/05 11:23:25;;;;;;;4.30;1.00;;;12.10;99.90;;;;;;4996457;28;20193;-74
2023/02/05 11:26:01;;;;;;;3.30;1.07;;;12.10;99.90;;;;;;4978933;28;20610;-74
2023/02/05 11:28:36;;;;;;;4.70;1.03;;;12.00;99.90;;;;;;4963467;28;20201;-74
2023/02/05 11:31:36;;;;;;;;;;;;;;;;;;;;;
2023/02/05 11:34:16;;;;;;;6.50;1.00;;;11.80;99.90;;;;;;4980223;28;20208;-74
2023/02/05 11:36:58;;;;;;;3.43;0.90;;;11.80;99.90;;;;;;4983081;28;20926;-74
2023/02/05 11:39:39;;;;;;;1.97;0.60;;;11.90;99.90;;;;;;4989298;28;20181;-74
2023/02/05 11:42:22;;;;;;;2.77;0.83;;;12.20;99.90;;;;;;4974251;28;20202;-74
2023/02/05 11:45:03;;;;;;;2.80;0.70;;;12.40;99.90;;;;;;4977715;28;20554;-74
2023/02/05 11:47:39;;;;;;;2.00;0.87;;;12.40;99.90;;;;;;4979323;28;20204;-74
2023/02/05 11:50:25;;;;;;;1.83;0.70;;;12.50;99.90;;;;;;4987394;28;20188;-74
2023/02/05 11:53:04;;;;;;;2.47;0.73;;;12.40;99.90;;;;;;4974364;28;20442;-74
2023/02/05 11:55:42;;;;;;;4.17;0.73;;;12.60;99.90;;;;;;4984507;28;20538;-74
2023/02/05 11:58:34;;;;;;;2.20;0.80;;;12.70;99.90;;;;;;4983309;28;20792;-74
2023/02/05 12:01:24;;;;;;;3.70;1.00;;;12.70;99.90;;;;;;4977296;28;20190;-74
2023/02/05 12:04:23;;;;;;;2.03;0.87;;;12.80;99.90;;;;;;5000046;28;20185;-74
2023/02/05 12:07:10;;;;;;;0.77;0.53;;;12.60;99.90;;;;;;4977128;28;20690;-74
2023/02/05 12:09:40;;;;;;;1.70;0.97;;;12.60;99.90;;;;;;4977475;28;20186;-74
2023/02/05 12:12:29;;;;;;;2.40;0.70;;;12.60;99.90;;;;;;4985977;28;20193;-74
2023/02/05 12:15:15;;;;;;;3.93;0.90;;;12.60;99.90;;;;;;4973331;28;20559;-74
2023/02/05 12:18:03;;;;;;;1.97;0.87;;;12.50;99.90;;;;;;4983497;28;20213;-74
2023/02/05 12:20:43;;;;;;;3.00;0.80;;;12.40;99.90;;;;;;4978473;28;20989;-74
2023/02/05 12:23:42;;;;;;;3.17;1.20;;;12.40;99.90;;;;;;4983099;28;20781;-74
2023/02/05 12:26:41;;;;;;;4.60;1.43;;;12.30;99.90;;;;;;4983616;28;20196;-74
2023/02/05 12:29:20;;;;;;;4.17;1.10;;;12.20;99.90;;;;;;4981439;28;20713;-74
2023/02/05 12:32:18;;;;;;;2.70;0.93;;;12.30;99.90;;;;;;4977804;28;20566;-74
2023/02/05 12:35:01;;;;;;;7.17;1.30;;;12.20;99.90;;;;;;4989085;28;20505;-74
2023/02/05 12:37:52;;;;;;;3.50;1.03;;;12.20;99.90;;;;;;4984108;28;20358;-74
2023/02/05 12:41:15;;;;;;;8.33;1.73;;;12.00;99.90;;;;;;4968906;28;20182;-74
2023/02/05 12:43:56;;;;;;;4.80;1.17;;;12.00;99.90;;;;;;4967192;28;20230;-74
2023/02/05 14:30:25;;;;;;;10.63;3.00;;;10.20;99.90;;;;;;4976335;28;20169;-74
2023/02/05 14:33:03;;;;;;;11.13;3.93;;;10.20;99.90;;;;;;4977891;28;20288;-74
2023/02/05 14:35:42;;;;;;;10.90;2.77;;;10.10;99.90;;;;;;4984707;28;20217;-74
2023/02/05 14:38:23;;;;;;;9.47;1.80;;;10.10;99.90;;;;;;5000847;28;20815;-74
2023/02/05 14:41:17;;;;;;;10.87;3.10;;;10.10;99.90;;;;;;4979089;28;20616;-74
2023/02/05 14:43:58;;;;;;;11.87;2.30;;;10.10;99.90;;;;;;4978969;28;20313;-72
2023/02/05 14:46:53;;;;;;;10.97;1.90;;;10.10;99.90;;;;;;4982337;28;20619;-74
2023/02/05 14:49:33;;;;;;;12.10;1.80;;;10.00;99.90;;;;;;4980275;28;20249;-74
2023/02/05 14:52:24;;;;;;;8.00;1.90;;;10.00;99.90;;;;;;4983695;28;20177;-74
2023/02/05 14:55:27;;;;;;;9.57;2.20;;;10.00;99.90;;;;;;4985246;28;20277;-74
2023/02/05 14:58:05;;;;;;;6.43;1.90;;;10.00;99.90;;;;;;4973170;28;20583;-74
2023/02/05 15:00:41;;;;;;;7.70;2.10;;;10.00;99.90;;;;;;4985578;28;20225;-72
2023/02/05 15:03:38;;;;;;;10.17;1.93;;;10.00;99.90;;;;;;4973601;28;20622;-74
2023/02/05 15:06:14;;;;;;;7.87;2.27;;;9.90;99.90;;;;;;4978677;28;20194;-74
2023/02/05 15:09:16;;;;;;;7.50;1.80;;;9.90;99.90;;;;;;4984567;28;20687;-74
2023/02/05 15:12:08;;;;;;;6.27;1.70;;;9.80;99.90;;;;;;4961368;28;22492;-74
2023/02/05 15:14:56;;;;;;;11.30;2.23;;;9.80;99.90;;;;;;4975420;28;20198;-73
2023/02/05 15:17:34;;;;;;;8.83;2.40;;;9.80;99.90;;;;;;4992236;28;20563;-73
2023/02/05 15:20:26;;;;;;;12.57;2.57;;;9.50;99.90;;;;;;4979520;28;20489;-73
2023/02/05 15:23:18;;;;;;;11.90;1.90;;;9.30;99.90;;;;;;4979235;28;21008;-73
2023/02/05 15:26:41;;;;;;;12.60;2.17;;;9.20;99.90;;;;;;4976130;28;20185;-73
2023/02/05 15:29:42;;;;;;;7.77;2.17;;;9.30;99.90;;;;;;4955834;28;20835;-73
2023/02/05 15:32:27;;;;;;;11.67;2.03;;;9.20;99.90;;;;;;4987429;28;20195;-74
2023/02/05 15:35:26;;;;;;;8.53;1.77;;;9.20;99.90;;;;;;4985765;28;20189;-74
2023/02/05 15:38:13;;;;;;;7.27;1.70;;;9.30;99.90;;;;;;4974981;28;20234;-74
2023/02/05 15:40:49;;;;;;;6.47;2.60;;;9.20;99.90;;;;;;4990070;28;20251;-74
2023/02/05 15:43:26;;;;;;;13.57;5.07;;;9.30;99.90;;;;;;4973476;28;20197;-74
2023/02/05 15:46:01;;;;;;;21.40;6.47;;;9.20;99.90;;;;;;4974946;28;20255;-74